sensor_id;sensor_type;location;lat;lon;timestamp;temperature;humidity
20815;DHT22;10568;48.176;16.316;2022-11-20T00:01:19;1.80;99.90
20815;DHT22;10568;48.176;16.316;2022-11-20T00:03:46;1.80;99.90
20815;DHT22;10568;48.176;16.316;2022-11-20T00:06:17;1.80;99.90
20815;DHT22;10568;48.176;16.316;2022-11-20T00:08:43;1.80;99.90
20815;DHT22;10568;48.176;16.316;2022-11-20T00:11:14;1.80;99.90
20815;DHT22;10568;48.176;16.316;2022-11-20T00:13:40;1.90;99.90
20815;DHT22;10568;48.176;16.316;2022-11-20T00:16:08;1.90;99.90
20815;DHT22;10568;48.176;16.316;2022-11-20T00:18:34;1.90;99.90
20815;DHT22;10568;48.176;16.316;2022-11-20T00:21:15;1.90;99.90
20815;DHT22;10568;48.176;16.316;2022-11-20T00:23:41;1.80;99.90
20815;DHT22;10568;48.176;16.316;2022-11-20T00:26:10;1.90;99.90
20815;DHT22;10568;48.176;16.316;2022-11-20T00:28:36;1.80;99.90
20815;DHT22;10568;48.176;16.316;2022-11-20T00:31:13;1.90;99.90
20815;DHT22;10568;48.176;16.316;2022-11-20T00:33:39;1.90;99.90
20815;DHT22;10568;48.176;16.316;2022-11-20T00:36:07;1.90;99.90
20815;DHT22;10568;48.176;16.316;2022-11-20T00:38:34;1.90;99.90
20815;DHT22;10568;48.176;16.316;2022-11-20T00:41:02;1.90;99.90
20815;DHT22;10568;48.176;16.316;2022-11-20T00:43:28;1.90;99.90
20815;DHT22;10568;48.176;16.316;2022-11-20T00:46:01;1.90;99.90
20815;DHT22;10568;48.176;16.316;2022-11-20T00:48:27;1.90;99.90
20815;DHT22;10568;48.176;16.316;2022-11-20T00:50:53;1.90;99.90
20815;DHT22;10568;48.176;16.316;2022-11-20T00:53:20;1.90;99.90
20815;DHT22;10568;48.176;16.316;2022-11-20T00:55:57;1.80;99.90
20815;DHT22;10568;48.176;16.316;2022-11-20T00:58:24;1.90;99.90
20815;DHT22;10568;48.176;16.316;2022-11-20T01:00:50;1.90;99.90
20815;DHT22;10568;48.176;16.316;2022-11-20T01:03:17;1.80;99.90
20815;DHT22;10568;48.176;16.316;2022-11-20T01:05:43;1.80;99.90
20815;DHT22;10568;48.176;16.316;2022-11-20T01:08:09;1.80;99.90
20815;DHT22;10568;48.176;16.316;2022-11-20T01:10:35;1.80;99.90
20815;DHT22;10568;48.176;16.316;2022-11-20T01:13:01;1.80;99.90
20815;DHT22;10568;48.176;16.316;2022-11-20T01:15:45;1.80;99.90
20815;DHT22;10568;48.176;16.316;2022-11-20T01:18:10;1.80;99.90
20815;DHT22;10568;48.176;16.316;2022-11-20T01:20:36;1.80;99.90
20815;DHT22;10568;48.176;16.316;2022-11-20T01:23:03;1.80;99.90
20815;DHT22;10568;48.176;16.316;2022-11-20T01:25:29;1.80;99.90
20815;DHT22;10568;48.176;16.316;2022-11-20T01:27:55;1.80;99.90
20815;DHT22;10568;48.176;16.316;2022-11-20T01:30:20;1.80;99.90
20815;DHT22;10568;48.176;16.316;2022-11-20T01:32:46;1.80;99.90
20815;DHT22;10568;48.176;16.316;2022-11-20T01:35:12;1.90;99.90
20815;DHT22;10568;48.176;16.316;2022-11-20T01:37:38;1.90;99.90
20815;DHT22;10568;48.176;16.316;2022-11-20T01:40:04;1.90;99.90
20815;DHT22;10568;48.176;16.316;2022-11-20T01:42:31;1.80;99.90
20815;DHT22;10568;48.176;16.316;2022-11-20T01:48:13;1.80;99.90
20815;DHT22;10568;48.176;16.316;2022-11-20T01:50:40;1.80;99.90
20815;DHT22;10568;48.176;16.316;2022-11-20T01:53:11;1.80;99.90
20815;DHT22;10568;48.176;16.316;2022-11-20T01:55:47;1.80;99.90
20815;DHT22;10568;48.176;16.316;2022-11-20T01:58:13;1.80;99.90
20815;DHT22;10568;48.176;16.316;2022-11-20T02:00:40;1.80;99.90
20815;DHT22;10568;48.176;16.316;2022-11-20T02:03:12;1.90;99.90
20815;DHT22;10568;48.176;16.316;2022-11-20T02:08:06;1.90;99.90
20815;DHT22;10568;48.176;16.316;2022-11-20T02:10:32;1.80;99.90
20815;DHT22;10568;48.176;16.316;2022-11-20T02:12:58;1.80;99.90
20815;DHT22;10568;48.176;16.316;2022-11-20T02:15:43;1.80;99.90
20815;DHT22;10568;48.176;16.316;2022-11-20T02:18:10;1.80;99.90
20815;DHT22;10568;48.176;16.316;2022-11-20T02:20:37;1.90;99.90
20815;DHT22;10568;48.176;16.316;2022-11-20T02:25:33;1.90;99.90
20815;DHT22;10568;48.176;16.316;2022-11-20T02:27:59;1.90;99.90
20815;DHT22;10568;48.176;16.316;2022-11-20T02:30:25;1.90;99.90
20815;DHT22;10568;48.176;16.316;2022-11-20T02:32:51;1.80;99.90
20815;DHT22;10568;48.176;16.316;2022-11-20T02:37:48;1.80;99.90
20815;DHT22;10568;48.176;16.316;2022-11-20T02:40:14;1.80;99.90
20815;DHT22;10568;48.176;16.316;2022-11-20T02:42:40;1.90;99.90
20815;DHT22;10568;48.176;16.316;2022-11-20T02:45:06;1.80;99.90
20815;DHT22;10568;48.176;16.316;2022-11-20T02:47:32;1.90;99.90
20815;DHT22;10568;48.176;16.316;2022-11-20T02:49:58;1.90;99.90
20815;DHT22;10568;48.176;16.316;2022-11-20T02:52:24;1.90;99.90
20815;DHT22;10568;48.176;16.316;2022-11-20T02:54:50;1.90;99.90
20815;DHT22;10568;48.176;16.316;2022-11-20T02:57:16;1.90;99.90
20815;DHT22;10568;48.176;16.316;2022-11-20T02:59:42;1.90;99.90
20815;DHT22;10568;48.176;16.316;2022-11-20T03:02:07;1.90;99.90
20815;DHT22;10568;48.176;16.316;2022-11-20T03:04:33;1.80;99.90
20815;DHT22;10568;48.176;16.316;2022-11-20T03:06:59;1.80;99.90
20815;DHT22;10568;48.176;16.316;2022-11-20T03:09:25;1.90;99.90
20815;DHT22;10568;48.176;16.316;2022-11-20T03:11:50;1.90;99.90
20815;DHT22;10568;48.176;16.316;2022-11-20T03:14:16;1.80;99.90
20815;DHT22;10568;48.176;16.316;2022-11-20T03:16:42;1.80;99.90
20815;DHT22;10568;48.176;16.316;2022-11-20T03:19:08;1.80;99.90
20815;DHT22;10568;48.176;16.316;2022-11-20T03:21:34;1.80;99.90
20815;DHT22;10568;48.176;16.316;2022-11-20T03:24:00;1.80;99.90
20815;DHT22;10568;48.176;16.316;2022-11-20T03:26:27;1.80;99.90
20815;DHT22;10568;48.176;16.316;2022-11-20T03:28:58;1.80;99.90
20815;DHT22;10568;48.176;16.316;2022-11-20T03:31:38;1.70;99.90
20815;DHT22;10568;48.176;16.316;2022-11-20T03:34:09;1.70;99.90
20815;DHT22;10568;48.176;16.316;2022-11-20T03:36:38;1.80;99.90
20815;DHT22;10568;48.176;16.316;2022-11-20T03:39:04;1.80;99.90
20815;DHT22;10568;48.176;16.316;2022-11-20T03:41:35;1.80;99.90
20815;DHT22;10568;48.176;16.316;2022-11-20T03:44:03;1.80;99.90
20815;DHT22;10568;48.176;16.316;2022-11-20T03:46:29;1.80;99.90
20815;DHT22;10568;48.176;16.316;2022-11-20T03:48:56;1.80;99.90
20815;DHT22;10568;48.176;16.316;2022-11-20T03:51:22;1.80;99.90
20815;DHT22;10568;48.176;16.316;2022-11-20T03:53:50;1.80;99.90
20815;DHT22;10568;48.176;16.316;2022-11-20T03:56:17;1.80;99.90
20815;DHT22;10568;48.176;16.316;2022-11-20T03:58:44;1.80;99.90
20815;DHT22;10568;48.176;16.316;2022-11-20T04:01:15;1.80;99.90
20815;DHT22;10568;48.176;16.316;2022-11-20T04:03:42;1.80;99.90
20815;DHT22;10568;48.176;16.316;2022-11-20T04:06:13;1.90;99.90
20815;DHT22;10568;48.176;16.316;2022-11-20T04:08:40;1.90;99.90
20815;DHT22;10568;48.176;16.316;2022-11-20T04:11:12;1.80;99.90
20815;DHT22;10568;48.176;16.316;2022-11-20T04:13:39;1.80;99.90
20815;DHT22;10568;48.176;16.316;2022-11-20T04:16:05;1.80;99.90
20815;DHT22;10568;48.176;16.316;2022-11-20T04:18:32;1.90;99.90
20815;DHT22;10568;48.176;16.316;2022-11-20T04:20:58;1.90;99.90
20815;DHT22;10568;48.176;16.316;2022-11-20T04:23:26;1.80;99.90
20815;DHT22;10568;48.176;16.316;2022-11-20T04:25:52;1.80;99.90
20815;DHT22;10568;48.176;16.316;2022-11-20T04:28:17;1.90;99.90
20815;DHT22;10568;48.176;16.316;2022-11-20T04:30:43;1.90;99.90
20815;DHT22;10568;48.176;16.316;2022-11-20T04:33:09;1.90;99.90
20815;DHT22;10568;48.176;16.316;2022-11-20T04:35:35;1.90;99.90
20815;DHT22;10568;48.176;16.316;2022-11-20T04:38:02;1.90;99.90
20815;DHT22;10568;48.176;16.316;2022-11-20T04:40:28;1.80;99.90
20815;DHT22;10568;48.176;16.316;2022-11-20T04:42:54;1.90;99.90
20815;DHT22;10568;48.176;16.316;2022-11-20T04:45:21;1.90;99.90
20815;DHT22;10568;48.176;16.316;2022-11-20T04:47:47;1.90;99.90
20815;DHT22;10568;48.176;16.316;2022-11-20T04:50:13;1.90;99.90
20815;DHT22;10568;48.176;16.316;2022-11-20T04:52:38;1.80;99.90
20815;DHT22;10568;48.176;16.316;2022-11-20T04:55:04;1.70;99.90
20815;DHT22;10568;48.176;16.316;2022-11-20T04:57:30;1.70;99.90
20815;DHT22;10568;48.176;16.316;2022-11-20T04:59:56;1.70;99.90
20815;DHT22;10568;48.176;16.316;2022-11-20T05:02:22;1.70;99.90
20815;DHT22;10568;48.176;16.316;2022-11-20T05:04:48;1.60;99.90
20815;DHT22;10568;48.176;16.316;2022-11-20T05:07:14;1.70;99.90
20815;DHT22;10568;48.176;16.316;2022-11-20T05:09:40;1.70;99.90
20815;DHT22;10568;48.176;16.316;2022-11-20T05:12:07;1.70;99.90
20815;DHT22;10568;48.176;16.316;2022-11-20T05:14:33;1.70;99.90
20815;DHT22;10568;48.176;16.316;2022-11-20T05:16:59;1.80;99.90
20815;DHT22;10568;48.176;16.316;2022-11-20T05:19:25;1.80;99.90
20815;DHT22;10568;48.176;16.316;2022-11-20T05:21:50;1.80;99.90
20815;DHT22;10568;48.176;16.316;2022-11-20T05:24:16;1.80;99.90
20815;DHT22;10568;48.176;16.316;2022-11-20T05:26:42;1.80;99.90
20815;DHT22;10568;48.176;16.316;2022-11-20T05:29:10;1.80;99.90
20815;DHT22;10568;48.176;16.316;2022-11-20T05:31:39;1.80;99.90
20815;DHT22;10568;48.176;16.316;2022-11-20T05:34:05;1.90;99.90
20815;DHT22;10568;48.176;16.316;2022-11-20T05:36:31;1.80;99.90
20815;DHT22;10568;48.176;16.316;2022-11-20T05:38:57;1.80;99.90
20815;DHT22;10568;48.176;16.316;2022-11-20T05:41:22;1.90;99.90
20815;DHT22;10568;48.176;16.316;2022-11-20T05:43:49;1.80;99.90
20815;DHT22;10568;48.176;16.316;2022-11-20T05:46:17;1.90;99.90
20815;DHT22;10568;48.176;16.316;2022-11-20T05:48:44;1.90;99.90
20815;DHT22;10568;48.176;16.316;2022-11-20T05:51:13;1.80;99.90
20815;DHT22;10568;48.176;16.316;2022-11-20T05:53:39;1.80;99.90
20815;DHT22;10568;48.176;16.316;2022-11-20T05:56:08;1.90;99.90
20815;DHT22;10568;48.176;16.316;2022-11-20T05:58:38;1.90;99.90
20815;DHT22;10568;48.176;16.316;2022-11-20T06:01:11;2.00;99.90
20815;DHT22;10568;48.176;16.316;2022-11-20T06:03:38;2.00;99.90
20815;DHT22;10568;48.176;16.316;2022-11-20T06:06:05;2.00;99.90
20815;DHT22;10568;48.176;16.316;2022-11-20T06:08:31;2.00;99.90
20815;DHT22;10568;48.176;16.316;2022-11-20T06:10:57;2.00;99.90
20815;DHT22;10568;48.176;16.316;2022-11-20T06:13:23;2.00;99.90
20815;DHT22;10568;48.176;16.316;2022-11-20T06:15:51;2.00;99.90
20815;DHT22;10568;48.176;16.316;2022-11-20T06:18:17;2.00;99.90
20815;DHT22;10568;48.176;16.316;2022-11-20T06:20:43;2.00;99.90
20815;DHT22;10568;48.176;16.316;2022-11-20T06:23:46;2.00;99.90
20815;DHT22;10568;48.176;16.316;2022-11-20T06:26:15;2.00;99.90
20815;DHT22;10568;48.176;16.316;2022-11-20T06:28:41;1.90;99.90
20815;DHT22;10568;48.176;16.316;2022-11-20T06:31:09;1.80;99.90
20815;DHT22;10568;48.176;16.316;2022-11-20T06:33:35;1.90;99.90
20815;DHT22;10568;48.176;16.316;2022-11-20T06:36:01;1.90;99.90
20815;DHT22;10568;48.176;16.316;2022-11-20T06:38:28;1.90;99.90
20815;DHT22;10568;48.176;16.316;2022-11-20T06:40:54;1.90;99.90
20815;DHT22;10568;48.176;16.316;2022-11-20T06:43:20;1.90;99.90
20815;DHT22;10568;48.176;16.316;2022-11-20T06:45:46;1.90;99.90
20815;DHT22;10568;48.176;16.316;2022-11-20T06:48:12;2.00;99.90
20815;DHT22;10568;48.176;16.316;2022-11-20T06:50:37;2.00;99.90
20815;DHT22;10568;48.176;16.316;2022-11-20T06:53:04;2.00;99.90
20815;DHT22;10568;48.176;16.316;2022-11-20T06:55:31;1.90;99.90
20815;DHT22;10568;48.176;16.316;2022-11-20T06:57:57;2.00;99.90
20815;DHT22;10568;48.176;16.316;2022-11-20T07:00:23;2.00;99.90
20815;DHT22;10568;48.176;16.316;2022-11-20T07:06:11;2.00;99.90
20815;DHT22;10568;48.176;16.316;2022-11-20T07:08:37;2.00;99.90
20815;DHT22;10568;48.176;16.316;2022-11-20T07:11:05;2.00;99.90
20815;DHT22;10568;48.176;16.316;2022-11-20T07:13:31;2.00;99.90
20815;DHT22;10568;48.176;16.316;2022-11-20T07:16:01;2.00;99.90
20815;DHT22;10568;48.176;16.316;2022-11-20T07:18:27;2.00;99.90
20815;DHT22;10568;48.176;16.316;2022-11-20T07:20:53;2.00;99.90
20815;DHT22;10568;48.176;16.316;2022-11-20T07:23:19;2.00;99.90
20815;DHT22;10568;48.176;16.316;2022-11-20T07:25:44;2.00;99.90
20815;DHT22;10568;48.176;16.316;2022-11-20T07:28:10;2.10;99.90
20815;DHT22;10568;48.176;16.316;2022-11-20T07:30:36;2.10;99.90
20815;DHT22;10568;48.176;16.316;2022-11-20T07:33:02;2.10;99.90
20815;DHT22;10568;48.176;16.316;2022-11-20T07:35:27;2.00;99.90
20815;DHT22;10568;48.176;16.316;2022-11-20T07:37:53;2.00;99.90
20815;DHT22;10568;48.176;16.316;2022-11-20T07:40:19;2.00;99.90
20815;DHT22;10568;48.176;16.316;2022-11-20T07:42:49;2.10;99.90
20815;DHT22;10568;48.176;16.316;2022-11-20T07:45:20;2.10;99.90
20815;DHT22;10568;48.176;16.316;2022-11-20T07:47:46;2.10;99.90
20815;DHT22;10568;48.176;16.316;2022-11-20T07:50:13;2.20;99.90
20815;DHT22;10568;48.176;16.316;2022-11-20T07:52:39;2.20;99.90
20815;DHT22;10568;48.176;16.316;2022-11-20T07:55:06;2.10;99.90
20815;DHT22;10568;48.176;16.316;2022-11-20T07:57:32;2.20;99.90
20815;DHT22;10568;48.176;16.316;2022-11-20T07:59:58;2.20;99.90
20815;DHT22;10568;48.176;16.316;2022-11-20T08:02:24;2.20;99.90
20815;DHT22;10568;48.176;16.316;2022-11-20T08:04:51;2.20;99.90
20815;DHT22;10568;48.176;16.316;2022-11-20T08:07:17;2.20;99.90
20815;DHT22;10568;48.176;16.316;2022-11-20T08:09:42;2.20;99.90
20815;DHT22;10568;48.176;16.316;2022-11-20T08:12:10;2.20;99.90
20815;DHT22;10568;48.176;16.316;2022-11-20T08:15:00;2.30;99.90
20815;DHT22;10568;48.176;16.316;2022-11-20T08:17:26;2.30;99.90
20815;DHT22;10568;48.176;16.316;2022-11-20T08:19:52;2.30;99.90
20815;DHT22;10568;48.176;16.316;2022-11-20T08:22:17;2.40;99.90
20815;DHT22;10568;48.176;16.316;2022-11-20T08:24:43;2.40;99.90
20815;DHT22;10568;48.176;16.316;2022-11-20T08:27:09;2.50;99.90
20815;DHT22;10568;48.176;16.316;2022-11-20T08:29:35;2.50;99.90
20815;DHT22;10568;48.176;16.316;2022-11-20T08:32:00;2.50;99.90
20815;DHT22;10568;48.176;16.316;2022-11-20T08:34:26;2.50;99.90
20815;DHT22;10568;48.176;16.316;2022-11-20T08:36:52;2.50;99.90
20815;DHT22;10568;48.176;16.316;2022-11-20T08:39:17;2.60;99.90
20815;DHT22;10568;48.176;16.316;2022-11-20T08:41:43;2.70;99.90
20815;DHT22;10568;48.176;16.316;2022-11-20T08:44:09;2.70;99.90
20815;DHT22;10568;48.176;16.316;2022-11-20T08:46:39;2.70;99.90
20815;DHT22;10568;48.176;16.316;2022-11-20T08:49:09;2.70;99.90
20815;DHT22;10568;48.176;16.316;2022-11-20T08:51:35;2.70;99.90
20815;DHT22;10568;48.176;16.316;2022-11-20T08:54:02;2.80;99.90
20815;DHT22;10568;48.176;16.316;2022-11-20T08:56:28;2.80;99.90
20815;DHT22;10568;48.176;16.316;2022-11-20T08:58:53;2.80;99.90
20815;DHT22;10568;48.176;16.316;2022-11-20T09:01:21;2.90;99.90
20815;DHT22;10568;48.176;16.316;2022-11-20T09:03:46;2.90;99.90
20815;DHT22;10568;48.176;16.316;2022-11-20T09:06:13;3.00;99.90
20815;DHT22;10568;48.176;16.316;2022-11-20T09:08:39;3.00;99.90
20815;DHT22;10568;48.176;16.316;2022-11-20T09:11:05;3.00;99.90
20815;DHT22;10568;48.176;16.316;2022-11-20T09:13:32;3.10;99.90
20815;DHT22;10568;48.176;16.316;2022-11-20T09:16:03;3.20;99.90
20815;DHT22;10568;48.176;16.316;2022-11-20T09:18:30;3.30;99.90
20815;DHT22;10568;48.176;16.316;2022-11-20T09:21:02;3.30;99.90
20815;DHT22;10568;48.176;16.316;2022-11-20T09:23:31;3.40;99.90
20815;DHT22;10568;48.176;16.316;2022-11-20T09:25:58;3.40;99.90
20815;DHT22;10568;48.176;16.316;2022-11-20T09:28:28;3.40;99.90
20815;DHT22;10568;48.176;16.316;2022-11-20T09:30:53;3.40;99.90
20815;DHT22;10568;48.176;16.316;2022-11-20T09:33:19;3.40;99.90
20815;DHT22;10568;48.176;16.316;2022-11-20T09:35:45;3.40;99.90
20815;DHT22;10568;48.176;16.316;2022-11-20T09:38:11;3.40;99.90
20815;DHT22;10568;48.176;16.316;2022-11-20T09:40:44;3.40;99.90
20815;DHT22;10568;48.176;16.316;2022-11-20T09:43:46;3.40;99.90
20815;DHT22;10568;48.176;16.316;2022-11-20T09:47:23;3.40;99.90
20815;DHT22;10568;48.176;16.316;2022-11-20T09:52:18;3.50;99.90
20815;DHT22;10568;48.176;16.316;2022-11-20T09:54:46;3.40;99.90
20815;DHT22;10568;48.176;16.316;2022-11-20T09:57:16;3.40;99.90
20815;DHT22;10568;48.176;16.316;2022-11-20T09:59:45;3.40;99.90
20815;DHT22;10568;48.176;16.316;2022-11-20T10:05:00;3.50;99.90
20815;DHT22;10568;48.176;16.316;2022-11-20T10:10:35;3.50;99.90
20815;DHT22;10568;48.176;16.316;2022-11-20T10:18:59;3.70;99.90
20815;DHT22;10568;48.176;16.316;2022-11-20T10:21:30;3.70;99.90
20815;DHT22;10568;48.176;16.316;2022-11-20T10:29:47;3.70;99.90
20815;DHT22;10568;48.176;16.316;2022-11-20T10:32:20;3.70;99.90
20815;DHT22;10568;48.176;16.316;2022-11-20T10:34:50;3.80;99.90
20815;DHT22;10568;48.176;16.316;2022-11-20T10:37:29;3.80;99.90
20815;DHT22;10568;48.176;16.316;2022-11-20T10:43:08;3.90;99.90
20815;DHT22;10568;48.176;16.316;2022-11-20T10:45:50;4.00;99.90
20815;DHT22;10568;48.176;16.316;2022-11-20T10:48:22;4.00;99.90
20815;DHT22;10568;48.176;16.316;2022-11-20T10:50:57;4.10;99.90
20815;DHT22;10568;48.176;16.316;2022-11-20T10:56:30;4.20;99.90
20815;DHT22;10568;48.176;16.316;2022-11-20T11:01:28;4.20;99.90
20815;DHT22;10568;48.176;16.316;2022-11-20T11:03:55;4.30;99.90
20815;DHT22;10568;48.176;16.316;2022-11-20T11:08:58;4.30;99.90
20815;DHT22;10568;48.176;16.316;2022-11-20T11:11:27;4.40;99.90
20815;DHT22;10568;48.176;16.316;2022-11-20T11:14:07;4.30;99.90
20815;DHT22;10568;48.176;16.316;2022-11-20T11:16:33;4.40;99.90
20815;DHT22;10568;48.176;16.316;2022-11-20T11:19:14;4.40;99.90
20815;DHT22;10568;48.176;16.316;2022-11-20T11:21:47;4.50;99.90
20815;DHT22;10568;48.176;16.316;2022-11-20T11:24:25;4.60;99.90
20815;DHT22;10568;48.176;16.316;2022-11-20T11:27:02;4.70;99.90
20815;DHT22;10568;48.176;16.316;2022-11-20T11:29:30;4.80;99.90
20815;DHT22;10568;48.176;16.316;2022-11-20T11:32:05;4.80;99.90
20815;DHT22;10568;48.176;16.316;2022-11-20T11:34:31;4.80;99.90
20815;DHT22;10568;48.176;16.316;2022-11-20T11:36:58;4.70;99.90
20815;DHT22;10568;48.176;16.316;2022-11-20T11:39:26;4.80;99.90
20815;DHT22;10568;48.176;16.316;2022-11-20T11:41:52;4.90;99.90
20815;DHT22;10568;48.176;16.316;2022-11-20T11:44:19;5.00;99.90
20815;DHT22;10568;48.176;16.316;2022-11-20T11:47:08;5.20;99.90
20815;DHT22;10568;48.176;16.316;2022-11-20T11:49:35;5.20;99.90
20815;DHT22;10568;48.176;16.316;2022-11-20T11:52:03;5.40;99.90
20815;DHT22;10568;48.176;16.316;2022-11-20T11:57:01;5.40;99.90
20815;DHT22;10568;48.176;16.316;2022-11-20T12:03:12;5.50;99.90
20815;DHT22;10568;48.176;16.316;2022-11-20T12:05:35;5.50;99.90
20815;DHT22;10568;48.176;16.316;2022-11-20T12:08:12;5.40;99.90
20815;DHT22;10568;48.176;16.316;2022-11-20T12:16:00;5.10;99.90
20815;DHT22;10568;48.176;16.316;2022-11-20T12:18:27;5.00;99.90
20815;DHT22;10568;48.176;16.316;2022-11-20T12:23:59;4.90;99.90
20815;DHT22;10568;48.176;16.316;2022-11-20T12:29:27;4.80;99.90
20815;DHT22;10568;48.176;16.316;2022-11-20T12:43:24;4.70;99.90
20815;DHT22;10568;48.176;16.316;2022-11-20T13:00:21;4.80;99.90
20815;DHT22;10568;48.176;16.316;2022-11-20T13:03:04;4.80;99.90
20815;DHT22;10568;48.176;16.316;2022-11-20T13:08:24;5.00;99.90
20815;DHT22;10568;48.176;16.316;2022-11-20T13:13:25;5.20;99.90
20815;DHT22;10568;48.176;16.316;2022-11-20T13:18:54;5.30;99.90
20815;DHT22;10568;48.176;16.316;2022-11-20T13:21:39;5.40;99.90
20815;DHT22;10568;48.176;16.316;2022-11-20T13:29:36;5.70;99.90
20815;DHT22;10568;48.176;16.316;2022-11-20T13:32:22;5.70;99.90
20815;DHT22;10568;48.176;16.316;2022-11-20T13:34:56;5.70;99.90
20815;DHT22;10568;48.176;16.316;2022-11-20T13:37:34;5.70;99.90
20815;DHT22;10568;48.176;16.316;2022-11-20T13:42:51;5.80;99.90
20815;DHT22;10568;48.176;16.316;2022-11-20T13:45:25;5.90;99.90
20815;DHT22;10568;48.176;16.316;2022-11-20T13:47:53;6.00;99.90
20815;DHT22;10568;48.176;16.316;2022-11-20T13:50:28;6.00;99.90
20815;DHT22;10568;48.176;16.316;2022-11-20T13:53:20;6.00;99.90
20815;DHT22;10568;48.176;16.316;2022-11-20T13:55:54;6.00;99.90
20815;DHT22;10568;48.176;16.316;2022-11-20T13:58:44;6.10;99.90
20815;DHT22;10568;48.176;16.316;2022-11-20T14:01:20;6.10;99.90
20815;DHT22;10568;48.176;16.316;2022-11-20T14:03:47;6.10;99.90
20815;DHT22;10568;48.176;16.316;2022-11-20T14:06:34;6.10;99.90
20815;DHT22;10568;48.176;16.316;2022-11-20T14:09:04;6.00;99.90
20815;DHT22;10568;48.176;16.316;2022-11-20T14:11:31;6.00;99.90
20815;DHT22;10568;48.176;16.316;2022-11-20T14:14:18;6.00;99.90
20815;DHT22;10568;48.176;16.316;2022-11-20T14:16:47;5.90;99.90
20815;DHT22;10568;48.176;16.316;2022-11-20T14:19:28;6.00;99.90
20815;DHT22;10568;48.176;16.316;2022-11-20T14:22:16;5.90;99.90
20815;DHT22;10568;48.176;16.316;2022-11-20T14:24:47;5.90;99.90
20815;DHT22;10568;48.176;16.316;2022-11-20T14:27:18;5.90;99.90
20815;DHT22;10568;48.176;16.316;2022-11-20T14:29:47;5.90;99.90
20815;DHT22;10568;48.176;16.316;2022-11-20T14:32:19;5.80;99.90
20815;DHT22;10568;48.176;16.316;2022-11-20T14:34:49;5.80;99.90
20815;DHT22;10568;48.176;16.316;2022-11-20T14:37:21;5.80;99.90
20815;DHT22;10568;48.176;16.316;2022-11-20T14:39:53;5.80;99.90
20815;DHT22;10568;48.176;16.316;2022-11-20T14:42:24;5.80;99.90
20815;DHT22;10568;48.176;16.316;2022-11-20T14:44:52;5.80;99.90
20815;DHT22;10568;48.176;16.316;2022-11-20T14:47:25;5.70;99.90
20815;DHT22;10568;48.176;16.316;2022-11-20T14:49:53;5.70;99.90
20815;DHT22;10568;48.176;16.316;2022-11-20T14:52:22;5.60;99.90
20815;DHT22;10568;48.176;16.316;2022-11-20T14:54:51;5.50;99.90
20815;DHT22;10568;48.176;16.316;2022-11-20T14:59:50;5.30;99.90
20815;DHT22;10568;48.176;16.316;2022-11-20T15:02:16;5.20;99.90
20815;DHT22;10568;48.176;16.316;2022-11-20T15:04:50;5.10;99.90
20815;DHT22;10568;48.176;16.316;2022-11-20T15:07:31;5.00;99.90
20815;DHT22;10568;48.176;16.316;2022-11-20T15:10:07;4.80;99.90
20815;DHT22;10568;48.176;16.316;2022-11-20T15:12:36;4.70;99.90
20815;DHT22;10568;48.176;16.316;2022-11-20T15:15:04;4.60;99.90
20815;DHT22;10568;48.176;16.316;2022-11-20T15:17:40;4.50;99.90
20815;DHT22;10568;48.176;16.316;2022-11-20T15:20:14;4.30;99.90
20815;DHT22;10568;48.176;16.316;2022-11-20T15:22:41;4.20;99.90
20815;DHT22;10568;48.176;16.316;2022-11-20T15:25:15;4.10;99.90
20815;DHT22;10568;48.176;16.316;2022-11-20T15:27:43;4.00;99.90
20815;DHT22;10568;48.176;16.316;2022-11-20T15:30:15;3.90;99.90
20815;DHT22;10568;48.176;16.316;2022-11-20T15:32:42;3.80;99.90
20815;DHT22;10568;48.176;16.316;2022-11-20T15:35:09;3.70;99.90
20815;DHT22;10568;48.176;16.316;2022-11-20T15:40:51;3.50;99.90
20815;DHT22;10568;48.176;16.316;2022-11-20T15:43:18;3.40;99.90
20815;DHT22;10568;48.176;16.316;2022-11-20T15:45:47;3.40;99.90
20815;DHT22;10568;48.176;16.316;2022-11-20T15:48:36;3.30;99.90
20815;DHT22;10568;48.176;16.316;2022-11-20T15:53:37;3.30;99.90
20815;DHT22;10568;48.176;16.316;2022-11-20T15:56:07;3.30;99.90
20815;DHT22;10568;48.176;16.316;2022-11-20T15:58:35;3.20;99.90
20815;DHT22;10568;48.176;16.316;2022-11-20T16:01:01;3.20;99.90
20815;DHT22;10568;48.176;16.316;2022-11-20T16:03:27;3.20;99.90
20815;DHT22;10568;48.176;16.316;2022-11-20T16:05:53;3.20;99.90
20815;DHT22;10568;48.176;16.316;2022-11-20T16:08:19;3.10;99.90
20815;DHT22;10568;48.176;16.316;2022-11-20T16:10:45;3.10;99.90
20815;DHT22;10568;48.176;16.316;2022-11-20T16:13:13;3.00;99.90
20815;DHT22;10568;48.176;16.316;2022-11-20T16:16:01;2.90;99.90
20815;DHT22;10568;48.176;16.316;2022-11-20T16:18:27;2.90;99.90
20815;DHT22;10568;48.176;16.316;2022-11-20T16:20:54;2.90;99.90
20815;DHT22;10568;48.176;16.316;2022-11-20T16:23:21;2.80;99.90
20815;DHT22;10568;48.176;16.316;2022-11-20T16:25:48;2.80;99.90
20815;DHT22;10568;48.176;16.316;2022-11-20T16:28:16;2.70;99.90
20815;DHT22;10568;48.176;16.316;2022-11-20T16:30:43;2.70;99.90
20815;DHT22;10568;48.176;16.316;2022-11-20T16:33:13;2.60;99.90
20815;DHT22;10568;48.176;16.316;2022-11-20T16:35:40;2.60;99.90
20815;DHT22;10568;48.176;16.316;2022-11-20T16:38:06;2.50;99.90
20815;DHT22;10568;48.176;16.316;2022-11-20T16:40:32;2.50;99.90
20815;DHT22;10568;48.176;16.316;2022-11-20T16:43:10;2.50;99.90
20815;DHT22;10568;48.176;16.316;2022-11-20T16:45:42;2.50;99.90
20815;DHT22;10568;48.176;16.316;2022-11-20T16:48:14;2.50;99.90
20815;DHT22;10568;48.176;16.316;2022-11-20T16:50:49;2.50;99.90
20815;DHT22;10568;48.176;16.316;2022-11-20T16:53:19;2.50;99.90
20815;DHT22;10568;48.176;16.316;2022-11-20T16:55:46;2.50;99.90
20815;DHT22;10568;48.176;16.316;2022-11-20T16:58:13;2.50;99.90
20815;DHT22;10568;48.176;16.316;2022-11-20T17:00:40;2.50;99.90
20815;DHT22;10568;48.176;16.316;2022-11-20T17:03:07;2.40;99.90
20815;DHT22;10568;48.176;16.316;2022-11-20T17:05:34;2.40;99.90
20815;DHT22;10568;48.176;16.316;2022-11-20T17:08:01;2.30;99.90
20815;DHT22;10568;48.176;16.316;2022-11-20T17:10:27;2.30;99.90
20815;DHT22;10568;48.176;16.316;2022-11-20T17:12:53;2.30;99.90
20815;DHT22;10568;48.176;16.316;2022-11-20T17:15:19;2.30;99.90
20815;DHT22;10568;48.176;16.316;2022-11-20T17:17:46;2.20;99.90
20815;DHT22;10568;48.176;16.316;2022-11-20T17:20:13;2.20;99.90
20815;DHT22;10568;48.176;16.316;2022-11-20T17:22:39;2.20;99.90
20815;DHT22;10568;48.176;16.316;2022-11-20T17:25:05;2.20;99.90
20815;DHT22;10568;48.176;16.316;2022-11-20T17:27:31;2.10;99.90
20815;DHT22;10568;48.176;16.316;2022-11-20T17:29:58;2.10;99.90
20815;DHT22;10568;48.176;16.316;2022-11-20T17:32:24;2.10;99.90
20815;DHT22;10568;48.176;16.316;2022-11-20T17:34:52;2.20;99.90